Belize City, Belize
Current Conditions -  °F | °C
As of 5:00 PM on Thursday 18 Dec 2014 (Local Time) from MZBZ Reporting Station
Few Clouds Few Clouds  
Wind Chill: 26°   Ceiling: Unl
Heat Index: 27°   Visibility: 6mi
Dew Point: 21°   Wind: 5mph
Humidity: 74%   Direction: 100°E
Pressure: 29.95"   Gusts: NA
Location:  17.5°N, 88.19°W
Report Text: MZBZ 182300Z 10004KT 9999 FEW022 26/21 A2995 Q1014 NOSIG
Loading
Personal Weather Stations






























Interactive Weather Map New forecast layout! Learn more

10-Day Weather Forecast

Advertisements
Track Severe Weather on mobile